Time;durP1;ratioP1;P1;durP2;ratioP2;P2;SDS_P1;SDS_P2;PMS_P1;PMS_P2;Temp;Humidity;BMP_temperature;BMP_pressure;BME280_temperature;BME280_humidity;BME280_pressure;Samples;Min_cycle;Max_cycle;Signal;HPM_P1;HPM_P2
2022/01/25 00:09:48;;;;;;;8.68;5.80;;;;;;;-10.79;62.57;96120.44;5115668;28;20039;-72
2022/01/25 00:33:26;;;;;;;8.68;4.85;;;;;;;-10.71;62.41;96126.47;5098305;28;20477;-72
2022/01/25 00:35:51;;;;;;;8.85;5.45;;;;;;;-10.76;62.69;96140.56;5113611;28;20473;-72
2022/01/25 00:38:17;;;;;;;7.07;5.15;;;;;;;-10.81;62.75;96145.53;5115030;27;20092;-73
2022/01/25 00:40:42;;;;;;;9.63;5.22;;;;;;;-10.84;62.73;96125.34;5113543;28;20048;-73
2022/01/25 00:43:08;;;;;;;7.43;4.57;;;;;;;-10.78;63.34;96143.88;5113584;28;20038;-72
2022/01/25 00:45:33;;;;;;;8.45;4.90;;;;;;;-10.81;63.04;96138.00;5113374;28;20432;-72
2022/01/25 00:48:02;;;;;;;8.07;4.80;;;;;;;-10.82;63.04;96132.94;5113481;28;20044;-72
2022/01/25 00:50:31;;;;;;;7.82;4.65;;;;;;;-10.84;63.56;96137.91;5114361;28;20120;-72
2022/01/25 00:55:22;;;;;;;8.93;5.07;;;;;;;-10.84;63.70;96130.38;5087440;28;20023;-73
2022/01/25 00:57:48;;;;;;;10.10;5.28;;;;;;;-10.82;63.64;96130.41;5114512;28;20046;-73
2022/01/25 01:00:14;;;;;;;9.48;4.90;;;;;;;-10.77;63.61;96122.97;5113596;28;20021;-72
2022/01/25 01:02:39;;;;;;;11.07;5.32;;;;;;;-10.81;63.49;96120.41;5112837;28;20039;-72
2022/01/25 01:05:05;;;;;;;8.40;5.05;;;;;;;-10.74;63.55;96120.53;5113329;28;20569;-73
2022/01/25 01:07:30;;;;;;;9.02;5.55;;;;;;;-10.78;63.26;96126.28;5095959;28;20028;-72
2022/01/25 01:09:58;;;;;;;9.63;5.22;;;;;;;-10.82;63.11;96126.22;5112916;28;20470;-73
2022/01/25 01:44:25;;;;;;;12.00;6.60;;;;;;;-11.03;62.50;96106.56;5098292;28;20096;-72
2022/01/25 01:47:22;;;;;;;20.17;8.82;;;;;;;-11.14;62.47;96100.47;5096228;28;20027;-72
2022/01/25 01:49:44;;;;;;;21.10;10.20;;;;;;;-11.22;63.11;96104.50;5098004;28;20082;-72
2022/01/25 01:52:10;;;;;;;8.02;5.18;;;;;;;-11.26;63.24;96093.50;5112308;28;20020;-72
2022/01/25 01:54:36;;;;;;;8.10;5.40;;;;;;;-11.19;62.49;96091.16;5113787;28;20115;-72
2022/01/25 01:57:01;;;;;;;15.77;9.07;;;;;;;-11.33;62.15;96101.75;5095209;28;20020;-72
2022/01/25 01:59:27;;;;;;;25.95;13.13;;;;;;;-11.35;62.34;96092.47;5112190;28;20043;-72
2022/01/25 02:01:52;;;;;;;35.78;18.95;;;;;;;-11.40;62.49;96092.38;5113179;28;20076;-73
2022/01/25 02:04:19;;;;;;;38.42;19.65;;;;;;;-11.45;62.30;96093.09;5112095;28;20092;-72
2022/01/25 02:06:44;;;;;;;34.05;15.70;;;;;;;-11.57;63.24;96094.50;5111689;28;20036;-72
2022/01/25 02:09:09;;;;;;;17.08;7.85;;;;;;;-11.55;63.47;96084.53;5111781;28;20497;-72
2022/01/25 02:11:36;;;;;;;8.65;5.32;;;;;;;-11.52;64.02;96084.59;5112107;28;20534;-72
2022/01/25 02:14:05;;;;;;;7.80;5.10;;;;;;;-11.60;63.53;96081.91;5094943;28;20100;-72
2022/01/25 02:24:25;;;;;;;8.02;4.57;;;;;;;-11.43;65.48;96078.91;5112037;28;20483;-72
2022/01/25 02:26:55;;;;;;;11.38;5.18;;;;;;;-11.39;66.18;96084.06;5111358;28;20031;-73
2022/01/25 02:29:20;;;;;;;8.10;4.65;;;;;;;-11.32;66.03;96070.81;5111631;28;20413;-72
2022/01/25 02:31:46;;;;;;;9.25;4.00;;;;;;;-11.32;65.70;96069.97;5111481;28;20031;-73
2022/01/25 02:34:11;;;;;;;12.10;5.57;;;;;;;-11.33;64.96;96070.78;5094401;28;20034;-72
2022/01/25 02:36:36;;;;;;;12.27;5.72;;;;;;;-11.30;65.08;96065.84;5111326;28;20032;-72
2022/01/25 02:39:02;;;;;;;9.13;5.75;;;;;;;-11.28;65.92;96056.66;5094373;28;20032;-72
2022/01/25 02:41:27;;;;;;;7.63;4.95;;;;;;;-11.19;66.19;96064.41;5111276;28;20050;-72
2022/01/25 02:43:53;;;;;;;7.65;4.97;;;;;;;-11.12;66.11;96062.84;5111225;28;20040;-72
2022/01/25 02:48:29;;;;;;;9.27;5.13;;;;;;;-11.07;65.26;96073.84;5111171;28;20460;-72
2022/01/25 02:49:05;;;;;;;8.40;4.45;;;;;;;-11.20;65.11;96040.09;5111371;28;20131;-72
2022/01/25 02:51:32;;;;;;;8.57;5.07;;;;;;;-11.12;65.86;96052.81;5110910;28;20046;-72
2022/01/25 02:53:57;;;;;;;7.82;4.32;;;;;;;-11.04;65.67;96052.16;5111088;28;20085;-72
2022/01/25 02:56:25;;;;;;;20.92;10.38;;;;;;;-11.07;64.55;96051.25;5077078;28;20489;-72
2022/01/25 02:58:51;;;;;;;36.97;20.40;;;;;;;-11.16;63.01;96058.59;5110938;28;20160;-72
2022/01/25 03:01:16;;;;;;;43.95;20.45;;;;;;;-11.20;62.09;96057.66;5110897;28;20023;-72
2022/01/25 03:03:42;;;;;;;50.63;25.38;;;;;;;-11.29;62.10;96054.97;5110868;28;20091;-72
2022/01/25 03:06:08;;;;;;;47.42;26.02;;;;;;;-11.48;62.85;96051.22;5093755;28;20481;-73
2022/01/25 03:08:33;;;;;;;46.83;24.05;;;;;;;-11.56;62.53;96040.16;5076786;28;20039;-72
2022/01/25 03:10:59;;;;;;;45.38;20.88;;;;;;;-11.57;62.43;96044.34;5093614;28;20031;-72
2022/01/25 03:13:31;;;;;;;43.45;20.92;;;;;;;-11.68;62.33;96054.97;5110662;28;20035;-72
2022/01/25 03:16:01;;;;;;;41.28;21.55;;;;;;;-11.78;63.05;96054.75;5094593;28;20404;-73
2022/01/25 03:21:03;;;;;;;34.15;18.73;;;;;;;-11.93;62.76;96046.91;5094696;28;20088;-72
2022/01/25 03:23:30;;;;;;;34.08;19.55;;;;;;;-11.92;62.83;96048.63;5094239;28;20108;-72
2022/01/25 03:25:56;;;;;;;41.90;21.80;;;;;;;-11.93;62.18;96044.41;5076980;28;20038;-72
2022/01/25 03:28:21;;;;;;;34.75;19.65;;;;;;;-12.06;64.58;96037.41;5110439;28;20486;-72
2022/01/25 03:30:47;;;;;;;25.42;14.30;;;;;;;-12.38;64.43;96025.78;5093345;28;20028;-72
2022/01/25 03:33:13;;;;;;;26.65;15.25;;;;;;;-12.27;63.89;96040.25;5110387;28;20027;-72
2022/01/25 03:35:39;;;;;;;28.92;16.23;;;;;;;-12.31;63.93;96051.00;5093390;28;20408;-72
2022/01/25 03:38:04;;;;;;;39.17;20.10;;;;;;;-12.26;63.31;96049.44;5092995;28;20084;-72
2022/01/25 03:40:30;;;;;;;36.05;20.77;;;;;;;-12.36;64.05;96047.56;5109936;28;20064;-72
2022/01/25 03:42:55;;;;;;;31.35;17.02;;;;;;;-12.32;62.98;96040.13;5093209;28;20028;-72
2022/01/25 03:45:27;;;;;;;33.13;18.63;;;;;;;-12.39;62.65;96036.63;5111291;28;20068;-72
2022/01/25 03:50:25;;;;;;;26.60;13.40;;;;;;;-12.55;63.03;96028.69;5111289;28;20566;-72
2022/01/25 03:52:50;;;;;;;14.63;8.18;;;;;;;-12.48;62.91;96020.53;5093194;28;20039;-72
2022/01/25 03:55:15;;;;;;;12.15;7.30;;;;;;;-12.56;62.91;96027.00;5111182;28;20020;-72
2022/01/25 03:57:41;;;;;;;11.88;7.43;;;;;;;-12.66;63.21;96010.91;5110026;28;20417;-72
2022/01/25 04:00:07;;;;;;;12.90;7.70;;;;;;;-12.74;63.88;96005.69;5109960;28;20515;-72
2022/01/25 04:02:35;;;;;;;15.88;7.68;;;;;;;-12.73;63.71;96024.06;5109968;28;20027;-72
2022/01/25 04:05:01;;;;;;;28.42;15.90;;;;;;;-12.72;64.17;96020.75;5109786;28;20034;-72
2022/01/25 04:07:42;;;;;;;24.45;14.95;;;;;;;-12.76;64.68;96007.31;5092933;28;20019;-72
2022/01/25 04:10:08;;;;;;;56.80;28.95;;;;;;;-12.72;65.33;96018.25;5110046;28;20031;-72
2022/01/25 04:12:33;;;;;;;38.53;20.77;;;;;;;-12.77;64.39;96010.63;5109873;28;20087;-72
2022/01/25 04:15:00;;;;;;;28.55;16.95;;;;;;;-12.78;64.48;96028.13;5111035;28;20039;-72
2022/01/25 04:17:25;;;;;;;38.67;20.45;;;;;;;-12.87;64.76;96013.69;5111073;28;20031;-72
2022/01/25 04:20:36;;;;;;;43.40;21.38;;;;;;;-12.91;65.40;96021.94;5092845;28;20408;-72
2022/01/25 04:25:20;;;;;;;36.00;19.70;;;;;;;-12.81;64.65;96016.38;5110967;28;20088;-72
2022/01/25 04:27:46;;;;;;;33.88;16.63;;;;;;;-12.82;64.46;96017.16;5109694;28;20035;-72
2022/01/25 04:30:11;;;;;;;17.05;11.10;;;;;;;-12.80;64.64;96007.19;5110908;28;20028;-72
2022/01/25 04:32:49;;;;;;;17.40;9.43;;;;;;;-12.77;65.22;95999.78;5111017;28;20028;-72
2022/01/25 04:54:03;;;;;;;51.00;25.40;;;;;;;-12.36;64.77;96002.47;5113392;28;20047;-72
2022/01/25 04:56:39;;;;;;;57.58;30.50;;;;;;;-12.56;64.55;95984.44;5114542;28;20024;-72
2022/01/25 04:59:13;;;;;;;47.95;27.70;;;;;;;-12.40;64.87;96011.53;5113555;28;20451;-72
2022/01/25 05:01:40;;;;;;;48.50;28.77;;;;;;;-12.38;64.58;96014.94;5113309;28;20107;-72
2022/01/25 05:04:11;;;;;;;49.10;26.92;;;;;;;-12.39;64.19;96006.59;5113449;28;22528;-72
2022/01/25 05:06:36;;;;;;;46.42;24.77;;;;;;;-12.48;64.14;95993.84;5113058;28;20031;-72
2022/01/25 05:09:11;;;;;;;48.63;24.83;;;;;;;-12.44;63.38;95994.75;5113195;28;20051;-72
2022/01/25 05:11:40;;;;;;;48.80;22.88;;;;;;;-12.49;63.92;96016.34;5112948;28;20030;-72
2022/01/25 05:16:34;;;;;;;58.10;26.80;;;;;;;-12.51;63.57;96017.94;5096223;28;20028;-72
2022/01/25 05:24:17;;;;;;;44.03;21.77;;;;;;;-12.70;63.38;96017.50;5113110;28;20100;-72
2022/01/25 05:26:43;;;;;;;49.90;24.75;;;;;;;-12.69;63.22;96018.34;5113817;28;20024;-72
2022/01/25 05:29:08;;;;;;;43.35;21.85;;;;;;;-12.73;62.83;96019.94;5114206;28;20032;-72
2022/01/25 05:31:35;;;;;;;41.45;21.67;;;;;;;-12.80;62.80;96005.53;5095564;28;20481;-73
2022/01/25 05:34:00;;;;;;;48.55;22.85;;;;;;;-12.90;63.16;96021.97;5112650;28;20024;-72
2022/01/25 05:36:26;;;;;;;43.42;21.45;;;;;;;-12.99;63.58;96013.38;5112564;28;20024;-72
2022/01/25 05:38:51;;;;;;;38.60;18.30;;;;;;;-13.18;63.75;95992.84;5112495;28;20040;-72
2022/01/25 05:41:17;;;;;;;32.75;14.23;;;;;;;-13.02;65.33;96004.13;5113673;28;20051;-72
2022/01/25 05:46:19;;;;;;;25.95;10.98;;;;;;;-12.64;69.34;96002.63;5112512;28;20413;-72
2022/01/25 05:48:47;;;;;;;20.73;9.95;;;;;;;-12.48;69.19;95987.97;5112123;28;20494;-72
2022/01/25 05:51:12;;;;;;;16.65;8.27;;;;;;;-12.41;69.51;95982.31;5095592;28;20192;-72
2022/01/25 05:53:37;;;;;;;13.70;8.18;;;;;;;-12.26;69.31;95990.16;5112423;28;20508;-72
2022/01/25 05:56:04;;;;;;;16.27;8.27;;;;;;;-12.16;69.43;95997.09;5112144;28;20053;-72
2022/01/25 05:58:29;;;;;;;14.43;8.15;;;;;;;-12.06;69.19;95993.16;5112353;28;20114;-72
2022/01/25 06:00:55;;;;;;;14.35;7.68;;;;;;;-12.13;69.15;95965.41;5111864;28;20547;-72
2022/01/25 06:03:20;;;;;;;17.42;9.20;;;;;;;-11.94;68.72;95990.09;5094581;28;20031;-72
2022/01/25 06:05:45;;;;;;;21.92;11.60;;;;;;;-11.85;68.17;96004.47;5094859;28;20035;-72
2022/01/25 06:08:11;;;;;;;24.95;12.95;;;;;;;-11.85;67.13;96012.81;5094889;28;20040;-72
2022/01/25 06:10:37;;;;;;;21.55;12.40;;;;;;;-11.74;66.34;96015.56;5111819;28;20027;-72
2022/01/25 06:13:02;;;;;;;20.88;12.20;;;;;;;-11.71;65.97;96016.47;5111860;28;20028;-72
2022/01/25 06:15:28;;;;;;;18.92;10.77;;;;;;;-11.72;66.27;96013.94;5112896;28;20560;-73
2022/01/25 06:17:53;;;;;;;14.80;8.93;;;;;;;-11.65;66.66;96020.75;5111602;28;20028;-72
2022/01/25 06:20:19;;;;;;;16.10;9.13;;;;;;;-11.61;67.01;96017.53;5112821;27;20036;-72
2022/01/25 06:22:44;;;;;;;16.48;8.52;;;;;;;-11.57;67.50;96020.94;5111606;28;20093;-72
2022/01/25 06:25:10;;;;;;;17.48;9.40;;;;;;;-11.50;67.48;96021.09;5112727;28;20027;-72
2022/01/25 06:27:40;;;;;;;15.60;8.77;;;;;;;-11.44;67.65;96027.91;5094602;28;20485;-73
2022/01/25 06:30:13;;;;;;;17.80;9.38;;;;;;;-11.42;67.55;96008.72;5112656;28;20028;-72
2022/01/25 06:32:39;;;;;;;20.83;10.07;;;;;;;-11.32;67.49;96012.25;5094569;28;20076;-72
2022/01/25 06:35:05;;;;;;;21.15;10.90;;;;;;;-11.27;67.21;96005.69;5094364;28;20028;-72
2022/01/25 06:37:30;;;;;;;21.98;11.52;;;;;;;-11.24;67.30;96008.25;5077937;28;20165;-72
2022/01/25 06:39:57;;;;;;;21.50;9.88;;;;;;;-11.25;66.74;96016.59;5094252;28;20036;-72
2022/01/25 06:42:23;;;;;;;15.70;9.45;;;;;;;-11.17;67.29;96020.13;5111138;28;20070;-72
2022/01/25 06:44:54;;;;;;;16.42;10.32;;;;;;;-11.08;67.21;96020.28;5112695;28;20482;-72
2022/01/25 06:47:19;;;;;;;17.65;10.20;;;;;;;-10.98;67.12;96011.25;5111154;28;20062;-72
2022/01/25 06:49:44;;;;;;;14.35;7.63;;;;;;;-10.95;66.75;96008.78;5110793;28;20176;-72
2022/01/25 06:52:10;;;;;;;16.77;9.60;;;;;;;-10.95;66.74;96001.25;5112360;28;20463;-72
2022/01/25 06:54:36;;;;;;;23.45;12.07;;;;;;;-10.84;66.54;95988.91;5111129;28;20161;-73
2022/01/25 06:57:01;;;;;;;19.25;10.23;;;;;;;-10.73;66.39;95992.47;5110939;28;20031;-72
2022/01/25 06:59:27;;;;;;;17.70;9.02;;;;;;;-10.65;65.83;95990.09;5111053;28;20031;-73
2022/01/25 07:01:52;;;;;;;14.40;9.07;;;;;;;-10.63;65.76;95984.28;5110912;28;20024;-72
2022/01/25 07:04:18;;;;;;;18.80;9.35;;;;;;;-10.58;66.02;95981.88;5110997;28;20379;-72
2022/01/25 07:06:43;;;;;;;17.27;9.60;;;;;;;-10.50;65.78;95989.50;5111907;28;20524;-72
2022/01/25 07:09:09;;;;;;;16.77;8.48;;;;;;;-10.40;65.42;95988.84;5110715;28;20039;-72
2022/01/25 07:11:34;;;;;;;13.88;8.30;;;;;;;-10.30;64.93;95997.41;5110673;28;20030;-72
2022/01/25 07:14:00;;;;;;;17.25;8.75;;;;;;;-10.28;65.05;95995.75;5093076;28;20050;-72
2022/01/25 07:16:25;;;;;;;15.65;9.70;;;;;;;-10.22;64.66;95981.59;5110944;28;20057;-72
2022/01/25 07:18:51;;;;;;;19.70;9.52;;;;;;;-10.05;64.22;95988.56;5110670;28;20035;-73
2022/01/25 07:21:16;;;;;;;16.48;9.30;;;;;;;-10.03;64.70;95990.25;5110548;28;20542;-72
2022/01/25 07:23:42;;;;;;;17.80;9.38;;;;;;;-9.99;64.42;95976.91;5111941;28;20023;-72
2022/01/25 07:26:07;;;;;;;15.20;8.32;;;;;;;-9.99;64.45;95971.88;5093527;28;20027;-72
2022/01/25 07:28:33;;;;;;;17.65;9.10;;;;;;;-9.79;63.96;95977.19;5111822;28;20413;-72
2022/01/25 07:30:59;;;;;;;12.93;8.82;;;;;;;-9.71;63.48;95979.81;5076554;28;20028;-72
2022/01/25 07:33:24;;;;;;;19.38;10.70;;;;;;;-9.75;63.03;95986.50;5093502;28;20108;-72
2022/01/25 07:35:50;;;;;;;15.07;8.25;;;;;;;-9.57;62.54;95975.81;5110267;28;20038;-73
2022/01/25 07:38:15;;;;;;;19.17;9.57;;;;;;;-9.56;62.27;95969.09;5111665;28;20034;-73
2022/01/25 07:40:41;;;;;;;19.05;10.07;;;;;;;-9.44;62.49;95966.78;5110202;28;20024;-72
2022/01/25 07:43:07;;;;;;;13.70;8.30;;;;;;;-9.26;62.03;95964.47;5110347;28;20043;-72
2022/01/25 07:45:35;;;;;;;16.17;9.57;;;;;;;-8.97;61.69;95971.50;5111372;28;20024;-72
2022/01/25 07:48:07;;;;;;;15.52;8.75;;;;;;;-8.71;60.82;95974.31;5093558;28;20039;-73
2022/01/25 07:50:32;;;;;;;14.82;9.52;;;;;;;-8.38;59.56;95963.66;5093056;28;20138;-72
2022/01/25 07:52:58;;;;;;;12.77;8.00;;;;;;;-7.94;58.33;95972.41;5110059;28;20067;-72
2022/01/25 07:55:23;;;;;;;16.35;8.88;;;;;;;-7.59;57.84;95969.28;5111245;28;20032;-72
2022/01/25 07:57:49;;;;;;;75.88;28.27;;;;;;;-7.48;56.76;95971.00;5093127;28;20078;-72
2022/01/25 08:00:15;;;;;;;32.85;14.45;;;;;;;-7.17;56.03;95977.91;5093038;28;20030;-72
2022/01/25 08:02:41;;;;;;;17.02;9.80;;;;;;;-7.12;55.81;95966.13;5109985;28;20028;-72
2022/01/25 08:05:06;;;;;;;18.95;12.20;;;;;;;-6.92;55.68;95962.00;5109977;28;20020;-73
2022/01/25 08:07:32;;;;;;;16.48;9.63;;;;;;;-6.85;55.48;95963.72;5109915;28;20143;-71
2022/01/25 08:09:57;;;;;;;20.08;11.10;;;;;;;-6.89;55.24;95941.78;5092882;28;20028;-72
2022/01/25 08:12:23;;;;;;;19.05;11.18;;;;;;;-6.92;55.29;95956.94;5109900;28;20504;-73
2022/01/25 08:14:49;;;;;;;16.95;10.48;;;;;;;-6.97;55.14;95954.38;5109863;28;20015;-72
2022/01/25 08:17:16;;;;;;;19.85;10.80;;;;;;;-6.93;55.10;95960.31;5109742;28;20382;-72
2022/01/25 08:19:43;;;;;;;19.23;10.38;;;;;;;-6.84;55.69;95955.28;5110966;28;20405;-73
2022/01/25 08:22:08;;;;;;;21.23;12.68;;;;;;;-7.02;55.69;95951.03;5109868;28;20024;-73
2022/01/25 08:24:34;;;;;;;37.28;17.38;;;;;;;-7.02;55.91;95947.63;5110502;28;20039;-72
2022/01/25 08:26:59;;;;;;;22.65;13.10;;;;;;;-6.91;55.27;95956.09;5096842;28;20036;-73
2022/01/25 08:29:24;;;;;;;19.63;10.93;;;;;;;-6.77;55.31;95951.06;5114049;28;20187;-72
2022/01/25 08:31:50;;;;;;;22.77;13.20;;;;;;;-6.72;55.17;95956.16;5096803;28;20027;-72
2022/01/25 08:34:15;;;;;;;19.55;11.10;;;;;;;-6.89;55.72;95961.16;5114878;28;20039;-72
2022/01/25 08:36:41;;;;;;;22.92;13.25;;;;;;;-6.75;55.98;95960.34;5113820;28;20027;-73
2022/01/25 08:39:06;;;;;;;23.00;12.10;;;;;;;-6.91;55.67;95958.59;5115167;28;20040;-72
2022/01/25 08:41:32;;;;;;;20.88;12.25;;;;;;;-6.86;56.21;95938.41;5096691;28;20039;-72
2022/01/25 08:43:58;;;;;;;18.20;10.55;;;;;;;-6.64;54.78;95962.06;5113647;28;20063;-72
2022/01/25 08:46:23;;;;;;;17.02;9.77;;;;;;;-6.60;54.59;95954.50;5096446;28;20019;-72
2022/01/25 08:48:48;;;;;;;21.27;13.07;;;;;;;-6.72;54.42;95962.03;5113394;28;20035;-73
2022/01/25 08:51:14;;;;;;;32.30;16.63;;;;;;;-6.60;55.09;95957.03;5113419;28;20052;-72
2022/01/25 08:53:40;;;;;;;26.42;14.75;;;;;;;-6.51;55.41;95953.66;5113368;28;20046;-73
2022/01/25 08:56:05;;;;;;;27.33;15.20;;;;;;;-6.44;55.13;95945.22;5114485;28;20481;-72
2022/01/25 08:58:31;;;;;;;20.65;11.80;;;;;;;-6.31;54.53;95946.09;5113400;28;20027;-73
2022/01/25 09:00:56;;;;;;;25.85;13.73;;;;;;;-6.21;53.64;95959.56;5113173;28;20180;-72
2022/01/25 09:03:22;;;;;;;23.27;12.88;;;;;;;-6.14;53.98;95953.69;5096194;28;20023;-73
2022/01/25 09:05:47;;;;;;;39.10;17.85;;;;;;;-6.53;53.53;95946.06;5096117;28;20035;-71
2022/01/25 09:08:23;;;;;;;32.90;17.13;;;;;;;-6.44;54.13;95945.22;5114442;28;20032;-71
2022/01/25 09:10:51;;;;;;;26.30;14.57;;;;;;;-6.50;53.64;95921.63;5114192;28;20028;-71
2022/01/25 09:13:18;;;;;;;24.25;12.88;;;;;;;-6.40;52.91;95924.19;5113163;28;20028;-72
2022/01/25 09:15:43;;;;;;;95.57;40.00;;;;;;;-6.30;53.51;95913.19;5096042;28;20030;-71
2022/01/25 09:18:09;;;;;;;42.58;20.88;;;;;;;-6.12;52.94;95924.19;5095993;28;20023;-71
2022/01/25 09:20:34;;;;;;;44.67;23.15;;;;;;;-6.08;52.55;95918.25;5095809;28;20035;-71
2022/01/25 09:22:59;;;;;;;26.83;15.52;;;;;;;-6.13;51.89;95912.34;5112886;28;20164;-71
2022/01/25 09:25:25;;;;;;;19.90;11.50;;;;;;;-6.17;52.09;95914.06;5112733;28;20036;-71
2022/01/25 09:27:50;;;;;;;28.48;12.10;;;;;;;-6.07;52.45;95914.91;5095603;28;20027;-71
2022/01/25 09:30:16;;;;;;;20.58;11.18;;;;;;;-5.97;51.99;95908.97;5113810;27;20023;-71
2022/01/25 09:32:42;;;;;;;20.00;10.90;;;;;;;-5.90;52.22;95918.22;5112573;28;20032;-72
2022/01/25 09:35:07;;;;;;;25.63;14.77;;;;;;;-5.74;51.92;95908.06;5113767;28;20036;-72
2022/01/25 09:37:33;;;;;;;20.60;12.38;;;;;;;-5.74;51.72;95897.94;5111801;28;20024;-71
2022/01/25 09:39:58;;;;;;;21.33;11.45;;;;;;;-5.64;50.99;95902.97;5112440;28;20505;-71
2022/01/25 09:42:28;;;;;;;20.67;11.60;;;;;;;-5.57;51.61;95900.41;5112358;28;20020;-72
2022/01/25 09:44:53;;;;;;;22.15;11.50;;;;;;;-5.53;51.29;95897.03;5112374;28;20216;-72
2022/01/25 09:47:18;;;;;;;20.60;12.50;;;;;;;-5.60;51.14;95906.31;5113461;28;20052;-72
2022/01/25 09:49:44;;;;;;;19.90;12.30;;;;;;;-5.57;50.60;95891.16;5078151;28;20043;-72
2022/01/25 09:52:09;;;;;;;20.92;12.02;;;;;;;-5.57;50.94;95892.81;5113518;28;20035;-72
2022/01/25 09:54:35;;;;;;;39.10;18.73;;;;;;;-5.52;51.65;95869.16;5113827;28;20038;-72
2022/01/25 09:57:01;;;;;;;20.00;11.88;;;;;;;-5.42;51.41;95878.41;5078330;28;20035;-72
2022/01/25 09:59:26;;;;;;;22.40;11.82;;;;;;;-5.31;49.96;95875.00;5112321;28;20089;-72
2022/01/25 10:01:55;;;;;;;21.52;13.05;;;;;;;-5.28;50.34;95867.38;5112091;28;20031;-72
2022/01/25 10:04:36;;;;;;;20.83;12.38;;;;;;;-5.47;50.38;95866.63;5112003;28;20031;-72
2022/01/25 10:07:04;;;;;;;24.42;13.77;;;;;;;-5.46;50.66;95864.09;5080195;28;20028;-72
2022/01/25 10:09:30;;;;;;;23.92;13.63;;;;;;;-5.29;51.16;95855.56;5095269;28;20043;-72
2022/01/25 10:11:55;;;;;;;28.98;16.05;;;;;;;-5.26;50.58;95868.22;5094887;28;20076;-73
2022/01/25 10:14:25;;;;;;;31.00;19.35;;;;;;;-5.19;50.33;95868.19;5113437;27;20042;-72
2022/01/25 10:16:54;;;;;;;30.42;16.90;;;;;;;-5.10;50.38;95872.34;5095778;28;20024;-72
2022/01/25 10:19:26;;;;;;;20.75;13.65;;;;;;;-5.21;50.23;95862.28;5078409;28;20493;-72
2022/01/25 10:21:51;;;;;;;;;;;;;;;-5.26;50.07;95858.09;5112127;28;20019;-72
2022/01/25 10:24:24;;;;;;;22.40;12.82;;;;;;;-5.35;50.84;95855.59;5111808;28;20345;-72
2022/01/25 10:27:00;;;;;;;22.25;12.35;;;;;;;-5.25;50.93;95844.56;5112762;28;20111;-73
2022/01/25 10:29:32;;;;;;;20.05;10.70;;;;;;;-5.15;49.63;95848.75;5111755;28;20031;-72
2022/01/25 10:31:59;;;;;;;28.08;13.35;;;;;;;-5.21;50.44;95853.81;5111515;28;20024;-73
2022/01/25 10:34:26;;;;;;;17.45;10.07;;;;;;;-5.16;50.55;95844.50;5111273;28;20118;-73
2022/01/25 10:36:53;;;;;;;28.77;14.10;;;;;;;-5.05;50.21;95842.75;5094554;28;20031;-73
2022/01/25 10:39:26;;;;;;;39.83;21.83;;;;;;;-5.00;50.43;95833.44;5111496;28;20509;-73
2022/01/25 10:41:52;;;;;;;22.20;11.95;;;;;;;-5.12;50.19;95831.00;5111283;28;20432;-73
2022/01/25 10:44:17;;;;;;;28.25;13.95;;;;;;;-5.23;50.45;95820.91;5111347;28;20043;-74
2022/01/25 10:46:42;;;;;;;24.58;13.07;;;;;;;-5.16;50.42;95831.84;5111173;28;20084;-73
2022/01/25 10:49:12;;;;;;;28.42;14.10;;;;;;;-5.05;51.41;95831.78;5110790;28;20036;-73
2022/01/25 10:51:44;;;;;;;24.00;14.40;;;;;;;-5.04;50.80;95825.84;5093950;28;20476;-74
2022/01/25 10:54:23;;;;;;;22.80;12.02;;;;;;;-5.10;50.88;95819.13;5111190;28;20472;-73
2022/01/25 10:56:57;;;;;;;39.15;20.73;;;;;;;-5.01;50.15;95820.78;5094080;28;20031;-73
2022/01/25 10:59:32;;;;;;;28.98;16.73;;;;;;;-5.16;50.86;95809.88;5111158;28;20100;-74
2022/01/25 11:02:00;;;;;;;32.92;18.83;;;;;;;-5.00;51.22;95810.63;5110875;28;20566;-71
2022/01/25 11:04:32;;;;;;;25.40;13.60;;;;;;;-4.94;50.24;95794.53;5094029;28;20032;-73
2022/01/25 11:07:06;;;;;;;36.20;21.02;;;;;;;-4.88;50.20;95786.88;5110764;28;20070;-71
2022/01/25 11:09:38;;;;;;;41.13;19.00;;;;;;;-4.83;50.08;95791.94;5110987;28;20070;-71
2022/01/25 11:12:10;;;;;;;56.03;28.95;;;;;;;-4.73;50.90;95791.84;5110818;28;20035;-71
2022/01/25 11:14:53;;;;;;;34.55;16.50;;;;;;;-4.62;50.43;95784.16;5094109;28;20039;-71
2022/01/25 11:17:29;;;;;;;31.75;15.52;;;;;;;-4.44;50.38;95792.47;5110775;28;20024;-74
2022/01/25 11:19:55;;;;;;;28.88;15.60;;;;;;;-4.33;51.06;95786.44;5094950;28;20032;-72
2022/01/25 11:22:20;;;;;;;29.05;16.77;;;;;;;-4.26;50.18;95789.75;5093500;28;20073;-72
2022/01/25 11:24:56;;;;;;;23.83;12.25;;;;;;;-4.32;49.69;95782.19;5111664;28;20023;-71
2022/01/25 11:27:25;;;;;;;23.80;11.52;;;;;;;-4.35;49.17;95772.06;5094345;28;20023;-71
2022/01/25 11:29:52;;;;;;;27.50;14.70;;;;;;;-4.30;49.54;95776.25;5093739;28;20031;-73
2022/01/25 11:32:22;;;;;;;23.92;15.00;;;;;;;-4.39;50.23;95767.91;5111557;28;20023;-72
2022/01/25 11:34:48;;;;;;;30.45;15.70;;;;;;;-4.32;49.69;95757.69;5094053;28;20028;-73
2022/01/25 11:37:13;;;;;;;30.70;17.27;;;;;;;-4.21;50.08;95760.09;5110273;28;20072;-75
2022/01/25 11:39:41;;;;;;;40.05;22.27;;;;;;;-4.24;49.63;95752.50;5110271;28;20024;-72
2022/01/25 11:42:20;;;;;;;33.53;17.98;;;;;;;-4.16;50.10;95753.25;5093506;28;20024;-71
2022/01/25 11:44:53;;;;;;;32.72;17.23;;;;;;;-4.34;49.82;95738.25;5110356;28;20625;-71
2022/01/25 11:47:21;;;;;;;39.65;17.75;;;;;;;-4.28;49.92;95730.56;5110133;28;20027;-71
2022/01/25 11:49:54;;;;;;;40.78;18.67;;;;;;;-4.20;50.41;95740.66;5109960;28;20432;-72
2022/01/25 11:52:21;;;;;;;25.38;15.70;;;;;;;-4.20;50.74;95723.72;5077250;28;20038;-73
2022/01/25 11:54:49;;;;;;;30.10;17.55;;;;;;;-4.18;50.38;95732.16;5093155;28;20062;-74
2022/01/25 11:57:24;;;;;;;30.17;15.18;;;;;;;-4.22;50.51;95733.03;5093330;28;20027;-74
2022/01/25 11:59:51;;;;;;;27.33;13.93;;;;;;;-4.22;49.85;95727.97;5092531;28;20042;-71
2022/01/25 12:02:46;;;;;;;26.40;14.13;;;;;;;-4.18;50.17;95727.09;5110017;28;20024;-71
2022/01/25 12:05:16;;;;;;;22.67;12.57;;;;;;;-4.23;50.49;95723.75;5092811;28;20104;-74
2022/01/25 12:08:11;;;;;;;22.45;12.80;;;;;;;-4.02;50.41;95724.34;5109855;28;20036;-74
2022/01/25 12:10:37;;;;;;;26.27;14.00;;;;;;;-3.87;49.97;95721.66;5109896;28;20028;-74
2022/01/25 12:13:32;;;;;;;19.33;11.60;;;;;;;-3.89;50.11;95714.03;5111281;28;20085;-74
2022/01/25 12:16:23;;;;;;;35.03;18.33;;;;;;;-3.89;49.60;95713.19;5101829;28;20036;-72
2022/01/25 12:18:57;;;;;;;27.52;14.10;;;;;;;-3.94;49.95;95710.72;5109879;28;20042;-73
2022/01/25 12:21:44;;;;;;;36.47;18.92;;;;;;;-3.95;49.75;95705.66;5109968;28;20034;-71
2022/01/25 12:24:23;;;;;;;24.95;14.30;;;;;;;-3.89;50.20;95703.03;5111338;28;20466;-74
2022/01/25 12:29:47;;;;;;;20.77;13.40;;;;;;;-3.92;49.74;95698.00;5111397;28;20028;-74
2022/01/25 12:32:23;;;;;;;23.77;13.90;;;;;;;-3.96;49.35;95693.81;5093334;28;20028;-71
2022/01/25 12:35:03;;;;;;;27.30;14.05;;;;;;;-3.82;49.91;95702.97;5109727;28;20417;-72
2022/01/25 12:37:53;;;;;;;23.08;12.50;;;;;;;-3.72;49.13;95698.59;5109740;28;20035;-71
2022/01/25 12:40:31;;;;;;;20.88;12.00;;;;;;;-3.71;49.29;95690.09;5110920;28;20405;-71
2022/01/25 12:43:08;;;;;;;23.75;12.93;;;;;;;-3.68;48.79;95684.97;5111012;28;20024;-73
2022/01/25 12:45:36;;;;;;;20.70;12.13;;;;;;;-3.75;48.74;95683.38;5093690;28;20170;-71
2022/01/25 12:48:06;;;;;;;28.67;15.15;;;;;;;-3.75;49.23;95667.31;5109591;28;20032;-74
2022/01/25 12:50:32;;;;;;;27.73;14.57;;;;;;;-3.68;49.02;95662.09;5110708;28;20485;-75
2022/01/25 12:52:59;;;;;;;28.13;13.25;;;;;;;-3.66;49.33;95654.50;5109562;28;20071;-71
2022/01/25 12:55:28;;;;;;;32.38;17.40;;;;;;;-3.50;49.07;95655.13;5109509;28;20023;-73
2022/01/25 12:57:53;;;;;;;39.67;21.55;;;;;;;-3.58;48.24;95644.22;5105454;28;20040;-74
2022/01/25 13:00:19;;;;;;;44.60;22.50;;;;;;;-3.50;48.86;95658.50;5070149;28;20493;-73
2022/01/25 13:02:44;;;;;;;21.98;13.25;;;;;;;-3.54;48.31;95661.91;5092417;28;20027;-74
2022/01/25 13:05:17;;;;;;;86.82;48.60;;;;;;;-3.46;48.78;95657.56;5109486;28;20034;-71
2022/01/25 13:07:43;;;;;;;31.00;19.73;;;;;;;-3.57;48.69;95640.81;5092224;28;20073;-74
2022/01/25 13:10:11;;;;;;;28.85;15.70;;;;;;;-3.61;48.93;95645.09;5075528;28;20077;-73
2022/01/25 13:12:54;;;;;;;31.10;13.82;;;;;;;-3.55;47.73;95646.72;5111456;28;20499;-72